createdAt,value
2022-10-23T00:00:38.074Z,76.08
2022-10-23T00:03:46.262Z,76.41
2022-10-23T00:06:53.578Z,76.16
2022-10-23T00:09:59.227Z,76.27
2022-10-23T00:13:04.874Z,77.01
2022-10-23T00:16:13.918Z,76.26
2022-10-23T00:19:19.605Z,76.29
2022-10-23T00:22:28.566Z,76.36
2022-10-23T00:25:36.566Z,76.37
2022-10-23T00:28:42.158Z,76.59
2022-10-23T00:31:50.355Z,76.50
2022-10-23T00:34:56.577Z,76.38
2022-10-23T00:38:02.343Z,76.05
2022-10-23T00:41:11.306Z,76.74
2022-10-23T00:45:16.650Z,77.18
2022-10-23T00:48:25.849Z,76.94
2022-10-23T00:51:39.213Z,77.02
2022-10-23T00:54:46.851Z,76.72
2022-10-23T00:57:54.790Z,76.57
2022-10-23T01:01:00.572Z,76.71
2022-10-23T01:04:12.065Z,76.23
2022-10-23T01:07:35.977Z,76.80
2022-10-23T01:10:55.441Z,77.76
2022-10-23T01:14:13.028Z,78.39
2022-10-23T01:17:32.725Z,78.02
2022-10-23T01:20:53.135Z,78.02
2022-10-23T01:24:29.366Z,78.42
2022-10-23T01:27:45.395Z,78.59
2022-10-23T01:30:52.646Z,78.47
2022-10-23T01:34:09.523Z,79.42
2022-10-23T01:37:23.969Z,79.39
2022-10-23T01:40:40.459Z,79.42
2022-10-23T01:43:58.849Z,80.48
2022-10-23T01:47:14.126Z,81.07
2022-10-23T01:50:39.376Z,81.87
2022-10-23T01:53:51.057Z,80.77
2022-10-23T01:57:01.670Z,81.11
2022-10-23T02:00:17.154Z,82.13
2022-10-23T02:03:38.829Z,82.34
2022-10-23T02:06:44.951Z,82.22
2022-10-23T02:09:50.861Z,82.86
2022-10-23T02:13:08.942Z,82.74
2022-10-23T02:16:30.689Z,82.66
2022-10-23T02:19:53.498Z,82.41
2022-10-23T02:23:15.250Z,83.09
2022-10-23T02:26:28.081Z,82.56
2022-10-23T02:29:41.826Z,82.35
2022-10-23T02:32:57.605Z,81.89
2022-10-23T02:36:03.770Z,81.75
2022-10-23T02:39:09.898Z,81.52
2022-10-23T02:42:26.866Z,81.14
2022-10-23T02:45:43.039Z,80.57
2022-10-23T02:49:09.806Z,80.45
2022-10-23T02:52:26.590Z,80.46
2022-10-23T02:55:52.721Z,80.37
2022-10-23T02:59:14.145Z,81.70
2022-10-23T03:06:02.211Z,82.88
2022-10-23T03:09:12.043Z,82.76
2022-10-23T03:12:30.223Z,82.35
2022-10-23T03:15:35.975Z,82.18
2022-10-23T03:18:41.843Z,82.11
2022-10-23T03:21:50.129Z,82.16
2022-10-23T03:24:59.491Z,81.77
2022-10-23T03:28:05.129Z,82.07
2022-10-23T03:31:12.854Z,81.59
2022-10-23T03:34:26.447Z,81.25
2022-10-23T03:37:35.142Z,80.90
2022-10-23T03:40:40.947Z,81.39
2022-10-23T03:43:46.738Z,81.40
2022-10-23T03:46:52.373Z,81.56
2022-10-23T03:49:59.028Z,80.98
2022-10-23T03:53:07.411Z,80.59
2022-10-23T03:56:13.304Z,80.33
2022-10-23T03:59:19.054Z,80.08
2022-10-23T04:02:24.877Z,80.23
2022-10-23T04:05:38.473Z,80.54
2022-10-23T04:08:50.414Z,80.84
2022-10-23T04:11:58.848Z,80.53
2022-10-23T04:15:08.141Z,81.25
2022-10-23T04:18:13.685Z,81.77
2022-10-23T04:21:19.569Z,82.28
2022-10-23T04:24:28.631Z,82.68
2022-10-23T04:27:35.137Z,82.54
2022-10-23T04:30:41.785Z,82.97
2022-10-23T04:33:51.114Z,83.44
2022-10-23T04:37:15.322Z,83.63
2022-10-23T04:40:23.517Z,83.84
2022-10-23T04:43:32.059Z,83.79
2022-10-23T04:46:37.643Z,84.36
2022-10-23T04:49:43.915Z,84.67
2022-10-23T04:53:09.823Z,83.72
2022-10-23T04:56:41.874Z,83.43
2022-10-23T04:59:52.399Z,82.96
2022-10-23T05:02:58.342Z,82.61
2022-10-23T05:06:10.329Z,82.92
2022-10-23T05:09:31.564Z,83.20
2022-10-23T05:13:06.683Z,83.87
2022-10-23T05:16:12.907Z,84.00
2022-10-23T05:19:28.045Z,83.26
2022-10-23T05:22:40.129Z,83.00
2022-10-23T05:25:49.204Z,83.74
2022-10-23T05:28:59.403Z,83.50
2022-10-23T05:32:18.856Z,83.31
2022-10-23T05:35:27.010Z,83.32
2022-10-23T05:38:38.730Z,83.12
2022-10-23T05:41:51.413Z,83.77
2022-10-23T05:45:04.033Z,84.16
2022-10-23T05:48:36.322Z,83.71
2022-10-23T05:51:53.412Z,83.62
2022-10-23T05:55:29.578Z,83.82
2022-10-23T05:58:46.274Z,82.66
2022-10-23T06:02:09.136Z,82.03
2022-10-23T06:05:29.499Z,81.89
2022-10-23T06:08:55.507Z,81.09
2022-10-23T06:12:01.887Z,81.42
2022-10-23T06:15:11.894Z,81.63
2022-10-23T06:18:43.074Z,82.40
2022-10-23T06:21:52.907Z,82.10
2022-10-23T06:25:09.536Z,81.92
2022-10-23T06:28:18.353Z,82.42
2022-10-23T06:31:28.040Z,82.93
2022-10-23T06:34:38.237Z,82.91
2022-10-23T06:37:46.909Z,81.47
2022-10-23T06:41:11.067Z,81.92
2022-10-23T06:44:17.319Z,81.71
2022-10-23T06:47:34.431Z,80.37
2022-10-23T06:51:02.452Z,80.73
2022-10-23T06:54:21.341Z,80.23
2022-10-23T06:57:27.035Z,79.26
2022-10-23T07:00:42.292Z,78.31
2022-10-23T07:03:52.338Z,77.62
2022-10-23T07:07:16.340Z,77.61
2022-10-23T07:10:36.230Z,76.66
2022-10-23T07:13:44.652Z,77.79
2022-10-23T07:16:56.028Z,76.95
2022-10-23T07:20:12.117Z,75.72
2022-10-23T07:23:20.636Z,75.89
2022-10-23T07:26:26.453Z,76.28
2022-10-23T07:29:32.446Z,78.08
2022-10-23T07:32:38.160Z,78.21
2022-10-23T07:36:13.161Z,79.42
2022-10-23T07:39:22.621Z,80.42
2022-10-23T07:42:30.842Z,79.78
2022-10-23T07:45:36.479Z,78.38
2022-10-23T07:48:50.643Z,78.30
2022-10-23T07:51:59.204Z,79.00
2022-10-23T07:55:20.677Z,79.83
2022-10-23T07:58:32.693Z,79.63
2022-10-23T08:01:55.706Z,80.56
2022-10-23T08:05:11.858Z,80.35
2022-10-23T08:08:28.208Z,80.01
2022-10-23T08:11:43.214Z,80.13
2022-10-23T08:14:53.590Z,79.59
2022-10-23T08:17:59.529Z,78.13
2022-10-23T08:21:21.478Z,76.17
2022-10-23T08:24:28.684Z,75.02
2022-10-23T08:27:37.506Z,74.46
2022-10-23T08:30:43.242Z,74.50
2022-10-23T08:36:56.257Z,74.41
2022-10-23T08:40:07.110Z,74.72
2022-10-23T08:44:10.456Z,74.01
2022-10-23T08:47:33.249Z,73.77
2022-10-23T08:51:18.483Z,72.63
2022-10-23T08:57:46.128Z,70.52
2022-10-23T09:00:56.201Z,72.37
2022-10-23T09:04:02.531Z,73.26
2022-10-23T09:07:26.681Z,73.05
2022-10-23T09:11:05.296Z,72.51
2022-10-23T09:14:52.007Z,70.87
2022-10-23T09:18:06.830Z,70.58
2022-10-23T09:21:13.402Z,70.94
2022-10-23T09:24:21.508Z,72.14
2022-10-23T09:27:27.721Z,71.64
2022-10-23T09:30:40.254Z,71.96
2022-10-23T09:33:59.867Z,72.56
2022-10-23T09:37:23.354Z,73.59
2022-10-23T09:40:41.939Z,72.84
2022-10-23T09:43:50.345Z,72.56
2022-10-23T09:47:12.293Z,71.77
2022-10-23T09:50:24.488Z,71.21
2022-10-23T09:53:40.747Z,67.36
2022-10-23T09:56:52.912Z,63.09
2022-10-23T10:00:11.030Z,61.42
2022-10-23T10:03:27.739Z,59.44
2022-10-23T10:06:48.998Z,57.06
2022-10-23T10:09:58.320Z,54.65
2022-10-23T10:13:34.068Z,55.70
2022-10-23T10:16:53.733Z,52.41
2022-10-23T10:20:26.940Z,51.01
2022-10-23T10:23:50.581Z,51.50
2022-10-23T10:27:17.512Z,50.85
2022-10-23T10:30:27.335Z,51.40
2022-10-23T10:33:50.749Z,51.70
2022-10-23T10:37:08.111Z,54.02
2022-10-23T10:40:31.233Z,53.41
2022-10-23T10:43:57.162Z,52.09
2022-10-23T10:47:20.949Z,51.41
2022-10-23T10:50:45.570Z,50.42
2022-10-23T10:54:35.921Z,48.00
2022-10-23T10:57:50.149Z,48.63
2022-10-23T11:01:13.478Z,47.25
2022-10-23T11:04:49.198Z,47.75
2022-10-23T11:08:05.152Z,49.17
2022-10-23T11:11:38.017Z,50.25
2022-10-23T11:14:53.570Z,49.74
2022-10-23T11:18:06.998Z,50.23
2022-10-23T11:21:34.604Z,52.11
2022-10-23T11:25:29.139Z,54.48
2022-10-23T11:29:08.520Z,55.08
2022-10-23T11:32:59.261Z,56.25
2022-10-23T11:36:16.745Z,56.88
2022-10-23T11:39:29.545Z,56.59
2022-10-23T11:42:52.658Z,54.86
2022-10-23T11:46:01.743Z,54.50
2022-10-23T11:49:24.300Z,53.18
2022-10-23T11:52:30.018Z,52.43
2022-10-23T11:55:38.470Z,52.29
2022-10-23T11:58:50.950Z,51.54
2022-10-23T12:02:04.141Z,51.13
2022-10-23T12:05:31.119Z,51.20
2022-10-23T12:08:54.783Z,51.31
2022-10-23T12:12:29.968Z,50.22
2022-10-23T12:15:41.371Z,48.63
2022-10-23T12:18:57.200Z,49.28
2022-10-23T12:22:07.308Z,49.23
2022-10-23T12:25:20.905Z,49.97
2022-10-23T12:28:41.256Z,49.78
2022-10-23T12:32:02.202Z,47.51
2022-10-23T12:35:52.584Z,46.87
2022-10-23T12:38:58.869Z,47.76
2022-10-23T12:42:05.208Z,48.28
2022-10-23T12:45:24.792Z,49.37
2022-10-23T12:48:30.349Z,49.92
2022-10-23T12:51:39.933Z,50.48
2022-10-23T12:54:45.457Z,49.99
2022-10-23T12:57:51.407Z,50.41
2022-10-23T13:01:00.283Z,51.39
2022-10-23T13:04:20.071Z,51.65
2022-10-23T13:07:34.608Z,51.40
2022-10-23T13:10:41.831Z,51.41
2022-10-23T13:13:50.184Z,51.75
2022-10-23T13:17:06.323Z,51.94
2022-10-23T13:20:35.255Z,51.90
2022-10-23T13:23:45.027Z,54.32
2022-10-23T13:26:51.248Z,53.72
2022-10-23T13:29:56.915Z,54.36
2022-10-23T13:33:09.290Z,54.96
2022-10-23T13:36:27.653Z,54.96
2022-10-23T13:39:37.798Z,55.23
2022-10-23T13:42:43.536Z,56.71
2022-10-23T13:45:49.261Z,56.24
2022-10-23T13:48:55.915Z,55.98
2022-10-23T13:52:01.600Z,55.74
2022-10-23T13:55:25.247Z,56.39
2022-10-23T13:58:31.142Z,55.96
2022-10-23T14:01:38.859Z,56.76
2022-10-23T14:04:44.509Z,56.56
2022-10-23T14:07:50.044Z,56.77
2022-10-23T14:10:58.207Z,57.30
2022-10-23T14:14:03.968Z,57.39
2022-10-23T14:17:09.589Z,57.32
2022-10-23T14:20:19.764Z,57.71
2022-10-23T14:23:25.684Z,57.56
2022-10-23T14:26:34.559Z,58.02
2022-10-23T14:29:40.137Z,58.68
2022-10-23T14:32:46.216Z,59.23
2022-10-23T14:35:53.522Z,59.57
2022-10-23T14:39:00.691Z,59.41
2022-10-23T14:42:09.084Z,59.15
2022-10-23T14:45:14.860Z,59.56
2022-10-23T14:48:20.580Z,59.43
2022-10-23T14:51:30.294Z,59.38
2022-10-23T14:54:36.574Z,59.58
2022-10-23T14:57:45.063Z,59.56
2022-10-23T15:01:01.709Z,59.29
2022-10-23T15:04:08.022Z,59.63
2022-10-23T15:07:13.646Z,59.34
2022-10-23T15:10:19.309Z,59.58
2022-10-23T15:13:27.540Z,60.79
2022-10-23T15:16:33.292Z,60.73
2022-10-23T15:19:39.678Z,60.61
2022-10-23T15:22:45.434Z,61.10
2022-10-23T15:25:59.090Z,61.77
2022-10-23T15:29:07.286Z,63.04
2022-10-23T15:32:13.977Z,62.82
2022-10-23T15:35:19.881Z,63.64
2022-10-23T15:38:26.417Z,64.29
2022-10-23T15:41:34.680Z,65.27
2022-10-23T15:44:44.052Z,65.32
2022-10-23T15:47:51.054Z,65.24
2022-10-23T15:50:59.328Z,64.82
2022-10-23T15:54:09.942Z,65.73
2022-10-23T15:57:15.503Z,65.50
2022-10-23T16:00:26.249Z,66.88
2022-10-23T16:03:31.971Z,67.71
2022-10-23T16:06:38.307Z,67.89
2022-10-23T16:09:44.001Z,68.59
2022-10-23T16:12:49.547Z,67.89
2022-10-23T16:15:57.795Z,67.70
2022-10-23T16:19:05.190Z,67.37
2022-10-23T16:22:11.352Z,68.06
2022-10-23T16:25:16.947Z,68.02
2022-10-23T16:28:22.643Z,67.70
2022-10-23T16:31:32.864Z,68.12
2022-10-23T16:34:38.618Z,68.63
2022-10-23T16:37:47.011Z,68.23
2022-10-23T16:40:57.692Z,68.67
2022-10-23T16:44:26.168Z,68.92
2022-10-23T16:47:39.483Z,68.62
2022-10-23T16:50:45.516Z,68.63
2022-10-23T16:53:52.250Z,68.80
2022-10-23T16:56:58.783Z,69.03
2022-10-23T17:00:04.439Z,69.32
2022-10-23T17:03:15.981Z,69.33
2022-10-23T17:06:26.008Z,70.13
2022-10-23T17:09:32.050Z,69.83
2022-10-23T17:12:39.413Z,69.61
2022-10-23T17:15:45.143Z,70.73
2022-10-23T17:18:53.440Z,70.72
2022-10-23T17:22:00.429Z,72.12
2022-10-23T17:25:06.686Z,72.70
2022-10-23T17:28:12.388Z,72.66
2022-10-23T17:31:21.941Z,71.90
2022-10-23T17:34:30.290Z,71.21
2022-10-23T17:37:36.112Z,73.07
2022-10-23T17:40:42.791Z,72.56
2022-10-23T17:43:48.778Z,72.20
2022-10-23T17:46:56.217Z,73.05
2022-10-23T17:50:04.369Z,72.27
2022-10-23T17:53:10.749Z,73.20
2022-10-23T17:56:20.159Z,72.28
2022-10-23T17:59:26.889Z,72.29
2022-10-23T18:02:32.745Z,72.90
2022-10-23T18:05:40.965Z,72.22
2022-10-23T18:08:47.666Z,73.26
2022-10-23T18:11:53.804Z,73.30
2022-10-23T18:15:01.058Z,75.21
2022-10-23T18:18:08.754Z,76.26
2022-10-23T18:21:18.923Z,78.14
2022-10-23T18:24:25.779Z,79.16
2022-10-23T18:27:31.367Z,79.36
2022-10-23T18:30:40.810Z,79.45
2022-10-23T18:33:46.999Z,80.62
2022-10-23T18:36:57.369Z,80.29
2022-10-23T18:40:03.061Z,80.35
2022-10-23T18:43:15.010Z,80.98
2022-10-23T18:46:25.899Z,80.78
2022-10-23T18:49:32.091Z,80.34
2022-10-23T18:52:40.390Z,79.92
2022-10-23T18:55:49.450Z,79.92
2022-10-23T18:58:57.740Z,79.01
2022-10-23T19:02:03.468Z,78.93
2022-10-23T19:05:11.646Z,79.55
2022-10-23T19:08:20.482Z,79.82
2022-10-23T19:11:30.467Z,80.28
2022-10-23T19:14:36.322Z,79.97
2022-10-23T19:17:42.394Z,80.12
2022-10-23T19:20:48.426Z,80.97
2022-10-23T19:24:00.077Z,81.03
2022-10-23T19:27:06.458Z,81.09
2022-10-23T19:30:16.297Z,82.05
2022-10-23T19:33:23.807Z,82.13
2022-10-23T19:36:29.598Z,81.90
2022-10-23T19:39:38.621Z,82.35
2022-10-23T19:42:46.057Z,82.18
2022-10-23T19:45:51.811Z,81.73
2022-10-23T19:48:57.573Z,81.45
2022-10-23T19:52:03.239Z,81.85
2022-10-23T19:55:12.689Z,81.59
2022-10-23T19:58:19.084Z,80.72
2022-10-23T20:01:28.488Z,81.01
2022-10-23T20:04:34.315Z,81.19
2022-10-23T20:07:40.456Z,81.28
2022-10-23T20:10:50.703Z,81.65
2022-10-23T20:13:56.748Z,81.38
2022-10-23T20:17:02.871Z,81.93
2022-10-23T20:20:09.885Z,82.10
2022-10-23T20:23:15.913Z,82.53
2022-10-23T20:26:25.201Z,83.02
2022-10-23T20:29:30.992Z,82.58
2022-10-23T20:32:37.353Z,82.25
2022-10-23T20:35:46.390Z,82.39
2022-10-23T20:38:52.641Z,82.42
2022-10-23T20:42:01.113Z,83.24
2022-10-23T20:45:13.986Z,84.21
2022-10-23T20:48:22.027Z,84.71
2022-10-23T20:51:29.213Z,85.13
2022-10-23T20:54:36.448Z,84.18
2022-10-23T20:57:44.939Z,84.17
2022-10-23T21:03:59.691Z,83.87
2022-10-23T21:07:12.344Z,83.61
2022-10-23T21:10:19.987Z,84.17
2022-10-23T21:13:36.663Z,82.90
2022-10-23T21:16:46.707Z,82.71
2022-10-23T21:19:52.350Z,82.14
2022-10-23T21:22:57.917Z,81.70
2022-10-23T21:26:07.610Z,81.75
2022-10-23T21:29:19.039Z,82.59
2022-10-23T21:32:30.339Z,82.70
2022-10-23T21:35:37.819Z,82.48
2022-10-23T21:38:43.794Z,80.99
2022-10-23T21:41:49.639Z,80.89
2022-10-23T21:44:57.898Z,80.89
2022-10-23T21:48:10.480Z,79.74
2022-10-23T21:51:26.755Z,78.96
2022-10-23T21:54:32.510Z,79.69
2022-10-23T21:57:38.251Z,78.23
2022-10-23T22:00:46.716Z,78.79
2022-10-23T22:03:52.682Z,78.07
2022-10-23T22:06:58.330Z,79.63
2022-10-23T22:10:16.502Z,80.33
2022-10-23T22:13:26.370Z,80.65
2022-10-23T22:16:34.879Z,80.39
2022-10-23T22:19:40.521Z,80.64
2022-10-23T22:22:46.146Z,80.29
2022-10-23T22:25:51.789Z,79.67
2022-10-23T22:29:00.917Z,80.56
2022-10-23T22:32:09.215Z,80.58
2022-10-23T22:35:14.899Z,81.91
2022-10-23T22:38:20.567Z,81.93
2022-10-23T22:41:27.231Z,83.34
2022-10-23T22:44:33.249Z,83.88
2022-10-23T22:47:41.428Z,83.47
2022-10-23T22:50:49.625Z,84.40
2022-10-23T22:53:56.039Z,84.63
2022-10-23T22:57:01.786Z,84.81
2022-10-23T23:00:10.130Z,84.38
2022-10-23T23:03:18.596Z,83.82
2022-10-23T23:06:25.511Z,83.36
2022-10-23T23:09:31.254Z,83.39
2022-10-23T23:12:37.209Z,83.41
2022-10-23T23:15:44.469Z,83.18
2022-10-23T23:18:53.699Z,83.48
2022-10-23T23:22:01.004Z,82.98
2022-10-23T23:25:07.058Z,82.95
2022-10-23T23:28:15.669Z,81.83
2022-10-23T23:31:24.591Z,81.08
2022-10-23T23:34:32.840Z,81.58
2022-10-23T23:37:38.422Z,81.72
2022-10-23T23:40:44.197Z,81.13
2022-10-23T23:43:49.983Z,80.42
2022-10-23T23:46:56.040Z,79.98
2022-10-23T23:50:04.305Z,80.96
2022-10-23T23:53:09.896Z,81.17
2022-10-23T23:56:16.012Z,80.94
2022-10-23T23:59:21.643Z,81.51
